createdAt,value
2024-02-19T00:01:16.599Z,21.00
2024-02-19T00:03:44.003Z,21.00
2024-02-19T00:06:11.320Z,21.00
2024-02-19T00:08:38.636Z,21.00
2024-02-19T00:11:05.953Z,20.90
2024-02-19T00:13:33.215Z,21.00
2024-02-19T00:16:00.549Z,21.00
2024-02-19T00:18:27.969Z,21.00
2024-02-19T00:20:55.397Z,20.90
2024-02-19T00:23:22.522Z,20.90
2024-02-19T00:25:49.703Z,20.90
2024-02-19T00:28:16.863Z,20.90
2024-02-19T00:30:44.372Z,20.90
2024-02-19T00:33:11.769Z,20.90
2024-02-19T00:35:38.977Z,20.90
2024-02-19T00:38:06.261Z,20.90
2024-02-19T00:40:34.334Z,20.80
2024-02-19T00:43:01.512Z,20.80
2024-02-19T00:45:28.742Z,20.80
2024-02-19T00:47:55.859Z,20.80
2024-02-19T00:50:22.986Z,20.80
2024-02-19T00:52:50.209Z,20.90
2024-02-19T00:55:22.470Z,20.90
2024-02-19T00:57:49.728Z,20.80
2024-02-19T01:00:17.702Z,20.90
2024-02-19T01:02:44.892Z,20.80
2024-02-19T01:05:12.076Z,20.90
2024-02-19T01:07:39.220Z,20.80
2024-02-19T01:10:07.180Z,20.80
2024-02-19T01:12:34.658Z,20.80
2024-02-19T01:15:02.192Z,20.90
2024-02-19T01:17:30.463Z,20.80
2024-02-19T01:19:58.684Z,20.80
2024-02-19T01:22:26.108Z,20.80
2024-02-19T01:24:53.313Z,20.80
2024-02-19T01:27:20.514Z,20.80
2024-02-19T01:29:47.868Z,20.80
2024-02-19T01:32:15.338Z,20.80
2024-02-19T01:34:42.688Z,20.80
2024-02-19T01:37:10.653Z,20.80
2024-02-19T01:39:38.003Z,20.70
2024-02-19T01:42:06.368Z,20.70
2024-02-19T01:44:33.659Z,20.80
2024-02-19T01:47:01.209Z,20.70
2024-02-19T01:49:28.689Z,20.70
2024-02-19T01:51:57.488Z,20.80
2024-02-19T01:54:25.477Z,20.80
2024-02-19T01:56:54.424Z,20.80
2024-02-19T01:59:23.931Z,20.80
2024-02-19T02:01:51.944Z,20.70
2024-02-19T02:04:20.287Z,20.80
2024-02-19T02:06:48.301Z,20.70
2024-02-19T02:09:15.985Z,20.70
2024-02-19T02:11:43.194Z,20.70
2024-02-19T02:14:10.533Z,20.80
2024-02-19T02:16:37.715Z,20.70
2024-02-19T02:19:05.171Z,20.70
2024-02-19T02:21:32.509Z,20.70
2024-02-19T02:23:59.664Z,20.70
2024-02-19T02:26:27.600Z,20.70
2024-02-19T02:28:54.908Z,20.80
2024-02-19T02:31:22.139Z,20.70
2024-02-19T02:33:49.681Z,20.80
2024-02-19T02:36:17.097Z,20.70
2024-02-19T02:38:44.328Z,20.70
2024-02-19T02:41:11.546Z,20.70
2024-02-19T02:43:38.932Z,20.70
2024-02-19T02:46:06.277Z,20.70
2024-02-19T02:48:33.604Z,20.70
2024-02-19T02:51:01.597Z,20.70
2024-02-19T02:53:29.153Z,20.70
2024-02-19T02:55:56.406Z,20.70
2024-02-19T02:58:23.711Z,20.70
2024-02-19T03:00:50.914Z,20.70
2024-02-19T03:03:18.153Z,20.70
2024-02-19T03:05:45.400Z,20.70
2024-02-19T03:08:12.932Z,20.70
2024-02-19T03:10:40.398Z,20.70
2024-02-19T03:13:08.086Z,20.70
2024-02-19T03:15:35.371Z,20.70
2024-02-19T03:18:03.321Z,20.70
2024-02-19T03:20:31.687Z,20.60
2024-02-19T03:22:59.296Z,20.70
2024-02-19T03:25:26.634Z,20.70
2024-02-19T03:27:54.291Z,20.60
2024-02-19T03:30:21.724Z,20.70
2024-02-19T03:32:50.191Z,20.60
2024-02-19T03:35:17.564Z,20.70
2024-02-19T03:37:46.141Z,20.70
2024-02-19T03:40:13.693Z,20.60
2024-02-19T03:42:41.158Z,20.60
2024-02-19T03:45:09.258Z,20.60
2024-02-19T03:47:36.907Z,20.60
2024-02-19T03:50:05.358Z,20.60
2024-02-19T03:52:32.706Z,20.60
2024-02-19T03:54:59.936Z,20.60
2024-02-19T03:57:28.998Z,20.60
2024-02-19T03:59:56.225Z,20.60
2024-02-19T04:02:24.307Z,20.60
2024-02-19T04:04:51.706Z,20.60
2024-02-19T04:07:19.034Z,20.60
2024-02-19T04:09:46.342Z,20.60
2024-02-19T04:12:13.800Z,20.60
2024-02-19T04:14:42.423Z,20.60
2024-02-19T04:17:09.965Z,20.60
2024-02-19T04:19:37.477Z,20.60
2024-02-19T04:22:05.002Z,20.60
2024-02-19T04:24:32.293Z,20.60
2024-02-19T04:26:59.562Z,20.60
2024-02-19T04:29:26.706Z,20.60
2024-02-19T04:31:53.854Z,20.60
2024-02-19T04:34:21.162Z,20.60
2024-02-19T04:36:48.663Z,20.60
2024-02-19T04:39:15.885Z,20.50
2024-02-19T04:41:43.284Z,20.50
2024-02-19T04:44:10.579Z,20.50
2024-02-19T04:46:38.364Z,20.50
2024-02-19T04:49:05.742Z,20.50
2024-02-19T04:51:32.952Z,20.50
2024-02-19T04:54:00.223Z,20.60
2024-02-19T04:56:27.534Z,20.50
2024-02-19T04:58:56.443Z,20.50
2024-02-19T05:06:19.158Z,20.20
2024-02-19T05:08:46.937Z,20.40
2024-02-19T05:11:15.910Z,20.50
2024-02-19T05:13:44.257Z,20.50
2024-02-19T05:16:11.817Z,20.50
2024-02-19T05:18:39.304Z,20.50
2024-02-19T05:21:07.626Z,20.40
2024-02-19T05:23:34.986Z,20.40
2024-02-19T05:26:04.137Z,20.40
2024-02-19T05:45:49.840Z,20.60
2024-02-19T05:48:17.216Z,20.40
2024-02-19T05:50:44.612Z,20.40
2024-02-19T05:53:11.958Z,20.40
2024-02-19T05:55:40.036Z,20.50
2024-02-19T05:58:07.512Z,20.40
2024-02-19T06:00:35.056Z,20.40
2024-02-19T06:03:06.129Z,20.40
2024-02-19T06:05:33.539Z,20.40
2024-02-19T06:08:00.933Z,20.30
2024-02-19T06:10:28.407Z,20.40
2024-02-19T06:12:55.697Z,20.40
2024-02-19T06:15:25.628Z,20.40
2024-02-19T06:17:53.213Z,20.40
2024-02-19T06:20:20.716Z,20.40
2024-02-19T06:22:48.176Z,20.40
2024-02-19T06:25:18.952Z,20.40
2024-02-19T06:27:46.436Z,20.40
2024-02-19T06:30:14.227Z,20.40
2024-02-19T06:32:41.557Z,20.50
2024-02-19T06:35:09.446Z,20.40
2024-02-19T06:37:37.112Z,20.40
2024-02-19T06:40:05.014Z,20.30
2024-02-19T06:42:32.279Z,20.30
2024-02-19T06:44:59.439Z,20.40
2024-02-19T06:47:26.981Z,20.40
2024-02-19T06:49:54.278Z,20.40
2024-02-19T06:52:24.425Z,20.40
2024-02-19T06:54:53.077Z,20.40
2024-02-19T06:57:20.498Z,20.40
2024-02-19T06:59:49.805Z,20.50
2024-02-19T07:02:18.213Z,20.40
2024-02-19T07:04:46.952Z,20.50
2024-02-19T07:07:15.334Z,20.40
2024-02-19T07:09:42.969Z,20.40
2024-02-19T07:12:11.047Z,20.50
2024-02-19T07:14:38.436Z,20.50
2024-02-19T07:17:05.728Z,20.50
2024-02-19T07:19:33.067Z,20.50
2024-02-19T07:22:00.578Z,20.50
2024-02-19T07:24:29.773Z,20.50
2024-02-19T07:26:58.830Z,20.50
2024-02-19T07:29:26.237Z,20.50
2024-02-19T07:31:53.488Z,20.50
2024-02-19T07:34:20.974Z,20.50
2024-02-19T07:36:50.375Z,20.50
2024-02-19T07:39:19.205Z,20.50
2024-02-19T07:41:46.841Z,20.50
2024-02-19T07:44:14.348Z,20.50
2024-02-19T07:46:41.488Z,20.50
2024-02-19T07:49:09.237Z,20.50
2024-02-19T07:51:36.645Z,20.50
2024-02-19T07:54:04.148Z,20.50
2024-02-19T07:56:31.537Z,20.50
2024-02-19T07:58:59.034Z,20.50
2024-02-19T08:01:26.324Z,20.50
2024-02-19T08:03:53.934Z,20.50
2024-02-19T08:06:21.240Z,20.50
2024-02-19T08:08:48.605Z,20.50
2024-02-19T08:11:15.880Z,20.50
2024-02-19T08:13:43.627Z,20.50
2024-02-19T08:16:12.147Z,20.50
2024-02-19T08:18:39.496Z,20.50
2024-02-19T08:21:07.004Z,20.50
2024-02-19T08:23:35.406Z,20.50
2024-02-19T08:26:02.702Z,20.50
2024-02-19T08:28:30.635Z,20.50
2024-02-19T08:30:58.689Z,20.50
2024-02-19T08:33:26.521Z,20.50
2024-02-19T08:35:54.053Z,20.50
2024-02-19T08:38:21.423Z,20.50
2024-02-19T08:40:49.148Z,20.50
2024-02-19T08:43:16.515Z,20.50
2024-02-19T08:45:44.123Z,20.50
2024-02-19T08:48:11.757Z,20.40
2024-02-19T08:50:39.859Z,20.50
2024-02-19T08:53:07.443Z,20.50
2024-02-19T08:55:35.242Z,20.50
2024-02-19T08:58:02.825Z,20.50
2024-02-19T09:00:32.887Z,20.50
2024-02-19T09:03:01.315Z,20.50
2024-02-19T09:05:28.664Z,20.50
2024-02-19T09:07:55.977Z,20.50
2024-02-19T09:10:23.358Z,20.50
2024-02-19T09:12:50.661Z,20.50
2024-02-19T09:15:20.771Z,20.50
2024-02-19T09:17:48.267Z,20.50
2024-02-19T09:20:17.356Z,20.50
2024-02-19T09:22:46.000Z,20.50
2024-02-19T09:25:15.074Z,20.50
2024-02-19T09:27:42.583Z,20.50
2024-02-19T09:30:12.420Z,20.40
2024-02-19T09:32:39.952Z,20.50
2024-02-19T09:35:07.708Z,20.50
2024-02-19T09:37:35.128Z,20.50
2024-02-19T09:40:06.286Z,20.60
2024-02-19T09:42:34.484Z,20.50
2024-02-19T09:45:02.242Z,20.50
2024-02-19T09:47:31.642Z,20.60
2024-02-19T09:50:00.221Z,20.50
2024-02-19T09:52:30.304Z,20.60
2024-02-19T09:54:58.898Z,20.60
2024-02-19T09:57:29.582Z,20.60
2024-02-19T09:59:59.868Z,20.60
2024-02-19T10:02:28.869Z,20.60
2024-02-19T10:04:56.496Z,20.60
2024-02-19T10:07:24.454Z,20.60
2024-02-19T10:09:51.928Z,20.60
2024-02-19T10:12:20.011Z,20.60
2024-02-19T10:14:47.416Z,20.60
2024-02-19T10:17:23.580Z,20.60
2024-02-19T10:20:02.189Z,20.60
2024-02-19T10:22:29.635Z,20.60
2024-02-19T10:24:57.009Z,20.60
2024-02-19T10:27:24.695Z,20.60
2024-02-19T10:29:51.961Z,20.60
2024-02-19T10:32:19.253Z,20.70
2024-02-19T10:34:46.658Z,20.70
2024-02-19T10:37:13.810Z,20.70
2024-02-19T10:39:41.288Z,20.70
2024-02-19T10:42:09.646Z,20.70
2024-02-19T10:44:37.314Z,20.70
2024-02-19T10:47:06.296Z,20.70
2024-02-19T10:49:33.892Z,20.70
2024-02-19T10:52:04.219Z,20.70
2024-02-19T10:54:33.294Z,20.70
2024-02-19T10:57:08.983Z,20.50
2024-02-19T10:59:39.728Z,20.70
2024-02-19T11:02:10.548Z,20.70
2024-02-19T11:04:37.946Z,20.70
2024-02-19T11:07:05.743Z,20.70
2024-02-19T11:09:35.235Z,20.70
2024-02-19T11:12:04.605Z,20.70
2024-02-19T11:14:39.057Z,20.70
2024-02-19T11:17:06.566Z,20.70
2024-02-19T11:19:41.328Z,20.80
2024-02-19T11:22:13.355Z,20.70
2024-02-19T11:24:42.106Z,20.70
2024-02-19T11:27:09.961Z,20.80
2024-02-19T11:29:44.302Z,20.80
2024-02-19T11:32:21.655Z,20.80
2024-02-19T11:34:52.359Z,20.80
2024-02-19T11:37:20.819Z,20.80
2024-02-19T11:39:48.422Z,20.90
2024-02-19T11:42:19.610Z,20.90
2024-02-19T11:44:48.491Z,20.90
2024-02-19T11:47:16.999Z,20.90
2024-02-19T11:49:47.662Z,20.90
2024-02-19T11:52:15.733Z,20.80
2024-02-19T11:54:43.540Z,20.90
2024-02-19T11:57:11.683Z,20.90
2024-02-19T11:59:39.306Z,20.90
2024-02-19T12:02:07.815Z,20.90
2024-02-19T12:04:36.790Z,20.80
2024-02-19T12:07:04.883Z,20.80
2024-02-19T12:09:32.497Z,20.80
2024-02-19T12:11:59.900Z,20.80
2024-02-19T12:14:27.432Z,20.90
2024-02-19T12:16:58.699Z,20.80
2024-02-19T12:19:26.678Z,20.80
2024-02-19T12:21:54.945Z,20.90
2024-02-19T12:24:22.522Z,20.90
2024-02-19T12:26:49.785Z,20.80
2024-02-19T12:29:16.932Z,20.90
2024-02-19T12:31:44.305Z,20.80
2024-02-19T12:34:11.901Z,20.90
2024-02-19T12:36:39.361Z,20.90
2024-02-19T12:39:12.115Z,20.90
2024-02-19T12:41:39.843Z,21.00
2024-02-19T12:44:07.970Z,20.90
2024-02-19T12:46:36.085Z,20.90
2024-02-19T12:49:04.247Z,20.90
2024-02-19T12:51:37.179Z,20.90
2024-02-19T12:54:07.897Z,20.90
2024-02-19T12:56:36.791Z,20.90
2024-02-19T12:59:04.524Z,20.90
2024-02-19T13:01:34.008Z,20.90
2024-02-19T13:04:03.074Z,20.90
2024-02-19T13:06:31.668Z,20.90
2024-02-19T13:09:00.196Z,20.90
2024-02-19T13:11:29.195Z,20.90
2024-02-19T13:13:58.521Z,20.90
2024-02-19T13:16:26.300Z,20.90
2024-02-19T13:18:54.023Z,20.90
2024-02-19T13:21:21.750Z,20.90
2024-02-19T13:23:49.399Z,20.90
2024-02-19T13:26:16.986Z,20.90
2024-02-19T13:28:45.191Z,20.90
2024-02-19T13:31:13.069Z,20.90
2024-02-19T13:33:41.753Z,20.90
2024-02-19T13:36:10.303Z,20.90
2024-02-19T13:38:37.910Z,20.90
2024-02-19T13:41:05.882Z,20.90
2024-02-19T13:43:34.196Z,20.90
2024-02-19T13:46:05.549Z,20.90
2024-02-19T13:48:34.553Z,20.90
2024-02-19T13:51:03.316Z,20.90
2024-02-19T13:53:34.535Z,20.90
2024-02-19T13:56:02.085Z,20.90
2024-02-19T13:58:30.374Z,20.90
2024-02-19T14:01:06.030Z,20.90
2024-02-19T14:03:33.614Z,20.90
2024-02-19T14:06:01.003Z,20.90
2024-02-19T14:08:28.723Z,20.90
2024-02-19T14:10:58.594Z,21.00
2024-02-19T14:13:26.290Z,21.00
2024-02-19T14:15:53.923Z,21.00
2024-02-19T14:18:21.281Z,21.00
2024-02-19T14:20:48.593Z,21.00
2024-02-19T14:23:15.922Z,21.00
2024-02-19T14:25:45.036Z,21.00
2024-02-19T14:28:12.660Z,21.00
2024-02-19T14:30:40.141Z,21.00
2024-02-19T14:33:07.602Z,21.00
2024-02-19T14:35:35.341Z,21.00
2024-02-19T14:38:07.868Z,21.00
2024-02-19T14:40:37.955Z,21.00
2024-02-19T14:43:05.724Z,21.00
2024-02-19T14:45:33.741Z,21.00
2024-02-19T14:48:01.976Z,21.00
2024-02-19T14:50:29.480Z,21.00
2024-02-19T14:52:57.163Z,21.00
2024-02-19T14:55:24.540Z,21.00
2024-02-19T14:57:52.155Z,21.00
2024-02-19T15:00:22.927Z,21.00
2024-02-19T15:02:52.123Z,21.00
2024-02-19T15:05:20.562Z,21.00
2024-02-19T15:07:55.792Z,21.00
2024-02-19T15:10:29.261Z,21.00
2024-02-19T15:12:58.115Z,21.10
2024-02-19T15:15:25.910Z,21.00
2024-02-19T15:17:56.405Z,21.10
2024-02-19T15:20:24.105Z,21.00
2024-02-19T15:22:51.862Z,21.10
2024-02-19T15:25:20.775Z,21.00
2024-02-19T15:27:49.117Z,21.00
2024-02-19T15:30:16.621Z,20.90
2024-02-19T15:32:44.320Z,21.00
2024-02-19T15:35:12.088Z,21.00
2024-02-19T15:37:39.832Z,21.00
2024-02-19T15:40:09.747Z,21.00
2024-02-19T15:42:38.704Z,21.00
2024-02-19T15:45:06.973Z,21.00
2024-02-19T15:47:34.822Z,21.00
2024-02-19T15:50:04.435Z,21.10
2024-02-19T15:52:32.142Z,21.00
2024-02-19T15:54:59.803Z,21.10
2024-02-19T15:57:29.344Z,21.00
2024-02-19T15:59:57.400Z,21.00
2024-02-19T16:02:24.760Z,21.10
2024-02-19T16:04:52.153Z,21.00
2024-02-19T16:07:23.549Z,21.10
2024-02-19T16:09:52.584Z,21.00
2024-02-19T16:12:19.939Z,21.00
2024-02-19T16:14:47.343Z,21.10
2024-02-19T16:17:18.036Z,21.20
2024-02-19T16:19:45.349Z,21.20
2024-02-19T16:22:12.886Z,21.20
2024-02-19T16:24:40.517Z,21.20
2024-02-19T16:27:07.902Z,21.20
2024-02-19T16:29:35.228Z,21.20
2024-02-19T16:32:04.857Z,21.20
2024-02-19T16:34:32.232Z,21.10
2024-02-19T16:36:59.934Z,21.20
2024-02-19T16:39:30.099Z,21.10
2024-02-19T16:41:57.443Z,21.10
2024-02-19T16:44:26.634Z,21.10
2024-02-19T16:46:54.003Z,21.10
2024-02-19T16:49:21.266Z,21.10
2024-02-19T16:51:51.700Z,21.10
2024-02-19T16:54:21.556Z,21.10
2024-02-19T16:56:49.246Z,21.10
2024-02-19T16:59:16.787Z,21.10
2024-02-19T17:01:46.905Z,21.10
2024-02-19T17:04:14.528Z,21.10
2024-02-19T17:06:49.182Z,21.00
2024-02-19T17:09:16.518Z,21.10
2024-02-19T17:11:44.541Z,21.10
2024-02-19T17:14:12.001Z,21.10
2024-02-19T17:16:39.552Z,21.10
2024-02-19T17:19:07.135Z,21.10
2024-02-19T17:21:34.857Z,21.10
2024-02-19T17:28:58.801Z,21.60
2024-02-19T17:31:28.619Z,21.50
2024-02-19T17:33:56.148Z,21.60
2024-02-19T17:36:23.771Z,21.60
2024-02-19T17:38:51.074Z,21.70
2024-02-19T17:41:18.478Z,21.70
2024-02-19T17:43:48.432Z,21.80
2024-02-19T17:46:17.131Z,21.80
2024-02-19T17:48:47.874Z,21.80
2024-02-19T17:51:20.617Z,21.80
2024-02-19T17:53:52.575Z,21.80
2024-02-19T17:56:20.210Z,21.90
2024-02-19T17:58:47.803Z,22.00
2024-02-19T18:01:18.157Z,22.00
2024-02-19T18:03:45.577Z,22.00
2024-02-19T18:06:15.603Z,22.00
2024-02-19T18:08:42.970Z,22.10
2024-02-19T18:11:13.948Z,22.20
2024-02-19T18:13:41.754Z,22.30
2024-02-19T18:16:09.498Z,22.30
2024-02-19T18:18:37.477Z,22.30
2024-02-19T18:21:09.756Z,22.40
2024-02-19T18:23:37.042Z,22.40
2024-02-19T18:26:06.888Z,22.60
2024-02-19T18:28:36.355Z,22.50
2024-02-19T18:31:11.955Z,22.60
2024-02-19T18:33:39.888Z,22.50
2024-02-19T18:36:08.120Z,22.60
2024-02-19T18:38:38.696Z,22.60
2024-02-19T18:41:08.191Z,22.50
2024-02-19T18:43:35.687Z,22.50
2024-02-19T18:46:03.485Z,22.50
2024-02-19T18:48:32.050Z,22.50
2024-02-19T18:50:59.927Z,22.50
2024-02-19T18:53:28.110Z,22.50
2024-02-19T18:56:03.806Z,22.50
2024-02-19T18:58:31.629Z,22.50
2024-02-19T19:01:01.565Z,22.40
2024-02-19T19:03:29.431Z,22.50
2024-02-19T19:06:04.499Z,22.50
2024-02-19T19:08:32.608Z,22.50
2024-02-19T19:11:00.246Z,22.40
2024-02-19T19:13:27.734Z,22.50
2024-02-19T19:15:57.499Z,22.40
2024-02-19T19:18:25.217Z,22.40
2024-02-19T19:20:53.580Z,22.40
2024-02-19T19:23:21.113Z,22.40
2024-02-19T19:25:48.430Z,22.40
2024-02-19T19:28:16.835Z,22.40
2024-02-19T19:30:46.527Z,22.40
2024-02-19T19:33:19.057Z,22.40
2024-02-19T19:35:49.462Z,22.50
2024-02-19T19:38:17.477Z,22.50
2024-02-19T19:40:45.107Z,22.60
2024-02-19T19:43:12.558Z,22.60
2024-02-19T19:45:40.328Z,22.70
2024-02-19T19:48:08.801Z,22.70
2024-02-19T19:50:37.116Z,22.80
2024-02-19T19:53:04.737Z,22.80
2024-02-19T19:55:32.275Z,22.80
2024-02-19T19:58:00.118Z,22.90
2024-02-19T20:00:30.420Z,22.80
2024-02-19T20:02:58.701Z,22.90
2024-02-19T20:05:26.134Z,22.90
2024-02-19T20:07:53.633Z,22.80
2024-02-19T20:10:20.960Z,22.90
2024-02-19T20:12:48.955Z,22.80
2024-02-19T20:15:16.487Z,22.80
2024-02-19T20:17:43.917Z,22.80
2024-02-19T20:20:11.680Z,22.90
2024-02-19T20:22:39.447Z,22.80
2024-02-19T20:25:07.338Z,22.80
2024-02-19T20:27:34.551Z,22.80
2024-02-19T20:30:01.838Z,22.90
2024-02-19T20:32:29.168Z,22.90
2024-02-19T20:34:56.693Z,22.80
2024-02-19T20:37:24.202Z,22.80
2024-02-19T20:39:52.739Z,22.80
2024-02-19T20:42:20.162Z,22.80
2024-02-19T20:44:47.651Z,22.80
2024-02-19T20:47:14.888Z,22.80
2024-02-19T20:49:45.863Z,22.90
2024-02-19T20:52:16.384Z,22.90
2024-02-19T20:54:44.143Z,22.90
2024-02-19T20:57:12.192Z,22.90
2024-02-19T20:59:39.787Z,22.90
2024-02-19T21:02:08.314Z,22.90
2024-02-19T21:04:36.474Z,22.90
2024-02-19T21:07:07.419Z,22.90
2024-02-19T21:09:36.568Z,22.90
2024-02-19T21:12:04.268Z,22.90
2024-02-19T21:14:31.628Z,22.90
2024-02-19T21:16:59.939Z,22.80
2024-02-19T21:19:27.514Z,22.90
2024-02-19T21:21:55.112Z,22.90
2024-02-19T21:24:25.424Z,22.80
2024-02-19T21:26:53.443Z,22.80
2024-02-19T21:29:21.631Z,22.90
2024-02-19T21:31:50.440Z,22.80
2024-02-19T21:34:18.196Z,22.80
2024-02-19T21:36:45.571Z,22.90
2024-02-19T21:39:12.833Z,22.90
2024-02-19T21:41:40.401Z,23.00
2024-02-19T21:44:07.927Z,23.00
2024-02-19T21:46:37.218Z,22.90
2024-02-19T21:49:05.071Z,22.90
2024-02-19T21:51:32.561Z,22.90
2024-02-19T21:53:59.808Z,22.90
2024-02-19T22:16:18.308Z,23.30
2024-02-19T22:18:45.787Z,23.40
2024-02-19T22:21:13.320Z,23.40
2024-02-19T22:23:41.646Z,23.50
2024-02-19T22:26:09.607Z,23.60
2024-02-19T22:28:36.991Z,23.60
2024-02-19T22:31:07.163Z,23.60
2024-02-19T22:33:34.785Z,23.60
2024-02-19T22:36:02.068Z,23.70
2024-02-19T22:38:29.325Z,23.60
2024-02-19T22:40:57.351Z,23.70
2024-02-19T22:43:24.591Z,23.60
2024-02-19T22:45:54.832Z,23.70
2024-02-19T22:48:22.255Z,23.70
2024-02-19T22:50:49.613Z,23.70
2024-02-19T22:53:18.499Z,23.70
2024-02-19T22:55:45.970Z,23.70
2024-02-19T22:58:29.270Z,23.70
2024-02-19T23:01:00.504Z,23.70
2024-02-19T23:03:28.006Z,23.70
2024-02-19T23:05:55.835Z,23.70
2024-02-19T23:08:23.572Z,23.70
2024-02-19T23:10:52.333Z,23.70
2024-02-19T23:13:20.855Z,23.70
2024-02-19T23:15:48.508Z,23.70
2024-02-19T23:18:16.284Z,23.70
2024-02-19T23:20:43.512Z,23.80
2024-02-19T23:23:10.701Z,23.70
2024-02-19T23:25:37.986Z,23.70
2024-02-19T23:28:06.282Z,23.70
2024-02-19T23:30:34.052Z,23.80
2024-02-19T23:33:01.441Z,23.70
2024-02-19T23:35:28.877Z,23.70
2024-02-19T23:37:56.452Z,23.70
2024-02-19T23:40:23.780Z,23.70
2024-02-19T23:42:51.620Z,23.70
2024-02-19T23:45:19.887Z,23.70
2024-02-19T23:47:47.087Z,23.70
2024-02-19T23:50:14.684Z,23.70
2024-02-19T23:52:42.254Z,23.70
2024-02-19T23:55:10.765Z,23.70
2024-02-19T23:57:38.883Z,23.70
